Time;durP1;ratioP1;P1;durP2;ratioP2;P2;SDS_P1;SDS_P2;PMS_P1;PMS_P2;Temp;Humidity;BMP_temperature;BMP_pressure;BME280_temperature;BME280_humidity;BME280_pressure;Samples;Min_cycle;Max_cycle;Signal;HPM_P1;HPM_P2
2022/09/30 00:02:23;;;;;;;6.05;4.03;;;;;;;6.87;100.00;100916.59;5116125;28;20537;-72
2022/09/30 00:04:48;;;;;;;6.35;4.55;;;;;;;6.87;100.00;100927.16;5116312;28;20035;-72
2022/09/30 00:07:14;;;;;;;8.13;4.70;;;;;;;6.87;100.00;100919.22;5116347;28;20032;-72
2022/09/30 00:09:39;;;;;;;7.75;5.32;;;;;;;6.91;100.00;100919.00;5115460;28;20473;-72
2022/09/30 00:12:04;;;;;;;9.07;5.05;;;;;;;6.95;100.00;100918.66;5116400;28;20027;-73
2022/09/30 00:14:30;;;;;;;7.68;5.22;;;;;;;6.95;100.00;100923.97;5115528;28;20067;-71
2022/09/30 00:16:55;;;;;;;8.80;5.70;;;;;;;6.96;100.00;100928.28;5115109;28;20035;-73
2022/09/30 00:19:21;;;;;;;10.15;5.85;;;;;;;6.94;100.00;100935.50;5116220;28;20155;-71
2022/09/30 00:21:46;;;;;;;7.80;5.18;;;;;;;6.93;100.00;100939.09;5115721;28;20053;-72
2022/09/30 00:24:12;;;;;;;7.38;5.47;;;;;;;6.92;100.00;100931.28;5115674;28;20035;-72
2022/09/30 00:26:37;;;;;;;8.98;5.60;;;;;;;6.92;100.00;100931.28;5115704;28;20380;-72
2022/09/30 00:29:03;;;;;;;8.90;5.50;;;;;;;6.88;100.00;100920.06;5116068;28;20032;-71
2022/09/30 00:31:32;;;;;;;9.82;5.50;;;;;;;6.87;100.00;100924.53;5115863;28;20031;-72
2022/09/30 00:34:07;;;;;;;10.05;5.93;;;;;;;6.83;100.00;100924.88;5115701;28;20085;-72
2022/09/30 00:36:47;;;;;;;6.88;5.90;;;;;;;6.76;100.00;100921.81;5115607;28;20111;-72
2022/09/30 00:39:17;;;;;;;8.73;5.45;;;;;;;6.65;100.00;100921.78;5115489;28;20028;-71
2022/09/30 00:41:43;;;;;;;7.40;5.75;;;;;;;6.56;100.00;100919.81;5115856;28;20039;-73
2022/09/30 00:44:46;;;;;;;6.28;4.68;;;;;;;6.45;100.00;100918.78;5115179;28;20027;-71
2022/09/30 00:47:24;;;;;;;11.05;5.72;;;;;;;6.38;100.00;100919.31;5115236;28;20024;-72
2022/09/30 00:49:50;;;;;;;9.90;5.13;;;;;;;6.32;100.00;100925.88;5115620;28;20032;-72
2022/09/30 00:52:16;;;;;;;7.80;5.35;;;;;;;6.23;100.00;100922.09;5115646;28;20028;-72
2022/09/30 00:54:42;;;;;;;7.70;5.60;;;;;;;6.18;100.00;100916.31;5115560;28;20109;-72
2022/09/30 00:57:07;;;;;;;9.95;5.57;;;;;;;6.10;100.00;100916.00;5114849;28;20476;-70
2022/09/30 00:59:40;;;;;;;8.68;5.15;;;;;;;6.00;100.00;100916.66;5115601;28;20465;-71
2022/09/30 01:02:06;;;;;;;11.52;6.20;;;;;;;5.92;100.00;100913.66;5115181;28;20368;-71
2022/09/30 01:04:34;;;;;;;6.97;4.88;;;;;;;5.86;100.00;100913.25;5115083;28;20118;-72
2022/09/30 01:07:05;;;;;;;5.72;4.93;;;;;;;5.81;100.00;100911.75;5114976;28;20105;-71
2022/09/30 01:09:33;;;;;;;4.72;4.03;;;;;;;5.77;100.00;100910.28;5115385;28;20024;-71
2022/09/30 01:11:59;;;;;;;8.55;6.15;;;;;;;5.73;100.00;100910.59;5114809;28;20027;-72
2022/09/30 01:14:27;;;;;;;8.00;5.07;;;;;;;5.72;100.00;100930.03;5114689;28;20034;-71
2022/09/30 01:17:01;;;;;;;8.85;5.80;;;;;;;5.73;100.00;100926.44;5114788;28;20036;-72
2022/09/30 01:19:51;;;;;;;8.13;5.30;;;;;;;5.76;100.00;100928.88;5114624;28;20031;-72
2022/09/30 01:22:28;;;;;;;9.95;5.80;;;;;;;5.76;100.00;100927.09;5115103;28;20468;-71
2022/09/30 01:25:26;;;;;;;8.93;5.85;;;;;;;5.76;100.00;100923.59;5114866;28;20094;-71
2022/09/30 01:28:17;;;;;;;7.60;5.47;;;;;;;5.69;100.00;100928.47;5114821;28;20072;-71
2022/09/30 01:31:39;;;;;;;9.70;5.97;;;;;;;5.61;100.00;100928.13;5114368;28;20023;-71
2022/09/30 01:34:04;;;;;;;7.50;4.43;;;;;;;5.54;100.00;100927.72;5051556;28;20275;-72
2022/09/30 01:36:42;;;;;;;6.60;4.80;;;;;;;5.50;100.00;100925.38;5109985;28;20563;-71
2022/09/30 01:39:28;;;;;;;10.57;5.65;;;;;;;5.45;100.00;100929.19;5114804;28;20035;-72
2022/09/30 01:42:07;;;;;;;11.15;5.32;;;;;;;5.41;100.00;100924.22;5114566;28;20023;-72
2022/09/30 01:44:44;;;;;;;8.30;4.78;;;;;;;5.40;100.00;100933.06;5112968;28;20164;-71
2022/09/30 01:47:24;;;;;;;6.25;4.45;;;;;;;5.35;100.00;100924.63;5114205;28;20077;-71
2022/09/30 01:49:53;;;;;;;5.10;4.32;;;;;;;5.29;100.00;100918.81;5114342;28;20028;-72
2022/09/30 01:52:28;;;;;;;6.13;4.40;;;;;;;5.26;100.00;100913.72;5114092;28;20348;-73
2022/09/30 01:55:00;;;;;;;7.07;4.35;;;;;;;5.23;100.00;100906.03;5114269;28;20115;-71
2022/09/30 01:57:49;;;;;;;7.43;4.40;;;;;;;5.18;100.00;100910.78;5114254;28;20136;-71
2022/09/30 02:00:14;;;;;;;6.95;5.15;;;;;;;5.13;100.00;100910.22;5114152;28;20024;-71
2022/09/30 02:02:55;;;;;;;6.22;4.25;;;;;;;5.05;100.00;100910.72;5114018;28;20457;-71
2022/09/30 02:05:29;;;;;;;5.25;3.65;;;;;;;5.02;100.00;100908.31;5113908;28;20106;-71
2022/09/30 02:07:59;;;;;;;5.15;4.00;;;;;;;5.00;100.00;100904.06;5113825;28;20062;-72
2022/09/30 02:10:50;;;;;;;5.30;4.10;;;;;;;5.01;100.00;100905.75;5113999;28;20103;-71
2022/09/30 02:13:20;;;;;;;8.88;5.38;;;;;;;4.99;100.00;100911.16;5114153;28;20153;-71
2022/09/30 02:15:53;;;;;;;7.82;5.80;;;;;;;5.01;100.00;100914.50;5114265;28;20031;-72
2022/09/30 02:18:27;;;;;;;6.65;4.40;;;;;;;5.02;100.00;100923.28;5113259;28;20028;-71
2022/09/30 02:20:59;;;;;;;7.22;4.32;;;;;;;5.00;100.00;100914.63;5113272;28;20447;-72
2022/09/30 02:23:27;;;;;;;5.88;4.10;;;;;;;4.98;100.00;100919.16;5114371;28;20031;-72
2022/09/30 02:26:30;;;;;;;7.15;4.72;;;;;;;4.96;100.00;100927.16;5114110;28;20030;-72
2022/09/30 02:29:02;;;;;;;10.57;5.70;;;;;;;4.96;100.00;100927.16;5070146;28;20031;-72
2022/09/30 02:31:32;;;;;;;9.40;6.25;;;;;;;4.97;100.00;100928.88;5113604;28;20372;-74
2022/09/30 02:34:12;;;;;;;7.90;5.35;;;;;;;4.95;100.00;100931.56;5113558;28;20027;-72
2022/09/30 02:37:00;;;;;;;8.93;5.77;;;;;;;4.94;100.00;100937.81;5113482;28;20110;-72
2022/09/30 02:39:39;;;;;;;8.43;5.88;;;;;;;4.93;100.00;100938.75;5110917;28;20503;-73
2022/09/30 02:42:20;;;;;;;7.25;6.03;;;;;;;4.95;100.00;100944.75;5113749;28;20400;-72
2022/09/30 02:44:51;;;;;;;8.60;5.70;;;;;;;4.96;100.00;100943.00;5113561;28;20045;-72
2022/09/30 02:47:38;;;;;;;10.45;6.00;;;;;;;4.92;100.00;100930.94;5113960;28;20074;-72
2022/09/30 02:50:10;;;;;;;8.45;4.97;;;;;;;4.89;100.00;100931.97;5113449;28;20067;-72
2022/09/30 02:52:53;;;;;;;7.57;5.28;;;;;;;4.87;100.00;100923.34;5113277;28;20480;-72
2022/09/30 02:55:50;;;;;;;6.03;4.68;;;;;;;4.84;100.00;100922.72;5113557;28;20062;-72
2022/09/30 02:58:20;;;;;;;8.02;4.47;;;;;;;4.83;100.00;100927.13;5113860;28;20029;-73
2022/09/30 03:00:46;;;;;;;6.88;4.50;;;;;;;4.84;100.00;100926.19;5113380;28;20024;-72
2022/09/30 03:03:18;;;;;;;8.55;4.85;;;;;;;4.85;100.00;100932.28;5113309;28;20034;-72
2022/09/30 03:05:44;;;;;;;7.53;5.00;;;;;;;4.83;100.00;100928.91;5113313;28;20085;-72
2022/09/30 03:08:10;;;;;;;6.85;4.70;;;;;;;4.81;100.00;100934.28;5113055;28;20032;-72
2022/09/30 03:10:37;;;;;;;6.05;4.32;;;;;;;4.82;100.00;100945.66;5112869;28;20387;-73
2022/09/30 03:13:21;;;;;;;5.95;4.57;;;;;;;4.83;100.00;100936.81;5113224;28;20031;-72
2022/09/30 03:15:59;;;;;;;4.43;3.70;;;;;;;4.78;100.00;100931.84;5113084;28;20038;-72
2022/09/30 03:18:36;;;;;;;5.32;3.97;;;;;;;4.74;100.00;100939.09;5113029;28;20080;-71
2022/09/30 03:21:27;;;;;;;5.60;4.07;;;;;;;4.72;100.00;100942.78;5113511;28;20044;-72
2022/09/30 03:24:22;;;;;;;6.47;4.25;;;;;;;4.70;100.00;100945.53;5113407;28;20460;-72
2022/09/30 03:26:59;;;;;;;8.80;5.63;;;;;;;4.69;100.00;100956.19;5102664;28;20044;-72
2022/09/30 03:29:49;;;;;;;14.57;5.82;;;;;;;4.71;100.00;100956.91;5113341;28;20022;-72
2022/09/30 03:32:32;;;;;;;9.60;5.93;;;;;;;4.72;100.00;100967.34;5117158;28;20169;-73
2022/09/30 03:35:25;;;;;;;5.88;4.15;;;;;;;4.69;100.00;100964.91;5116739;28;20114;-71
2022/09/30 03:38:02;;;;;;;6.05;3.83;;;;;;;4.67;100.00;100965.94;5116576;28;20031;-73
2022/09/30 03:40:39;;;;;;;6.57;4.22;;;;;;;4.65;100.00;100970.47;5116580;28;20122;-70
2022/09/30 03:43:10;;;;;;;6.03;4.85;;;;;;;4.64;100.00;100976.69;5116756;28;20028;-74
2022/09/30 03:45:46;;;;;;;5.20;4.18;;;;;;;4.59;100.00;100972.53;5116436;28;20031;-73
2022/09/30 03:48:13;;;;;;;4.65;4.07;;;;;;;4.55;100.00;100980.75;5116425;28;20031;-71
2022/09/30 03:50:40;;;;;;;6.72;4.63;;;;;;;4.51;100.00;100979.25;5116873;28;20141;-72
2022/09/30 03:53:13;;;;;;;8.38;5.25;;;;;;;4.49;100.00;100968.78;5116602;28;20114;-74
2022/09/30 03:55:47;;;;;;;7.55;5.05;;;;;;;4.48;100.00;100969.75;5116305;28;20032;-71
2022/09/30 03:58:13;;;;;;;9.77;5.35;;;;;;;4.49;100.00;100970.59;5116573;28;20118;-72
2022/09/30 04:00:46;;;;;;;8.00;5.55;;;;;;;4.47;100.00;100968.06;5114690;28;20036;-71
2022/09/30 04:03:11;;;;;;;6.97;5.35;;;;;;;4.47;100.00;100973.31;5116250;28;20024;-74
2022/09/30 04:05:37;;;;;;;7.57;5.45;;;;;;;4.47;100.00;100977.75;5115895;28;20357;-71
2022/09/30 04:08:02;;;;;;;12.38;7.57;;;;;;;4.51;100.00;100979.25;5116007;28;20035;-71
2022/09/30 04:10:27;;;;;;;9.55;6.18;;;;;;;4.56;100.00;100983.28;5115904;28;20039;-71
2022/09/30 04:12:53;;;;;;;10.88;6.63;;;;;;;4.60;100.00;100973.41;5116075;28;20426;-72
2022/09/30 04:15:19;;;;;;;12.73;7.07;;;;;;;4.60;100.00;100983.97;5115744;28;20516;-72
2022/09/30 04:17:44;;;;;;;14.00;8.60;;;;;;;4.66;100.00;100985.34;5114459;28;20043;-73
2022/09/30 04:20:11;;;;;;;20.33;10.80;;;;;;;4.75;100.00;100985.59;5115785;28;20031;-72
2022/09/30 04:22:37;;;;;;;15.95;9.82;;;;;;;4.82;100.00;100982.56;5116138;28;20047;-72
2022/09/30 04:25:02;;;;;;;24.90;13.63;;;;;;;4.87;100.00;100977.88;5115793;28;20024;-73
2022/09/30 04:27:29;;;;;;;23.45;13.10;;;;;;;4.93;100.00;100980.94;5115804;28;20126;-73
2022/09/30 04:29:54;;;;;;;28.05;15.07;;;;;;;5.00;100.00;100985.81;5115803;28;20024;-72
2022/09/30 04:32:21;;;;;;;20.10;12.27;;;;;;;5.06;100.00;100980.13;5115328;28;20039;-72
2022/09/30 04:34:47;;;;;;;40.25;18.20;;;;;;;5.14;100.00;100977.88;5115886;28;20074;-72
2022/09/30 04:37:12;;;;;;;27.90;15.40;;;;;;;5.23;100.00;100981.69;5115796;28;20093;-72
2022/09/30 04:39:38;;;;;;;28.52;15.32;;;;;;;5.28;100.00;100985.72;5115339;28;20062;-72
2022/09/30 04:42:03;;;;;;;23.15;13.32;;;;;;;5.34;100.00;100991.53;5115295;28;20057;-73
2022/09/30 04:44:29;;;;;;;28.85;15.50;;;;;;;5.39;100.00;100994.69;5115508;28;20035;-72
2022/09/30 04:46:54;;;;;;;26.27;15.18;;;;;;;5.44;100.00;101000.53;5115569;28;20039;-72
2022/09/30 04:49:19;;;;;;;23.38;14.10;;;;;;;5.45;100.00;101000.44;5115603;28;20035;-72
2022/09/30 04:51:45;;;;;;;33.58;17.17;;;;;;;5.45;100.00;100997.78;5113959;28;20039;-72
2022/09/30 04:54:11;;;;;;;22.77;13.25;;;;;;;5.45;100.00;101010.16;5115256;28;20028;-72
2022/09/30 04:56:37;;;;;;;19.38;11.45;;;;;;;5.40;100.00;101007.78;5115133;28;20471;-73
2022/09/30 04:59:02;;;;;;;17.02;11.30;;;;;;;5.37;100.00;101002.72;5114885;28;20047;-73
2022/09/30 05:01:28;;;;;;;19.42;12.35;;;;;;;5.35;100.00;101009.06;5115364;28;20028;-73
2022/09/30 05:03:53;;;;;;;22.52;12.13;;;;;;;5.31;100.00;101005.75;5115026;28;20527;-72
2022/09/30 05:06:19;;;;;;;16.95;10.15;;;;;;;5.28;100.00;101017.38;5115306;28;20479;-72
2022/09/30 05:08:45;;;;;;;19.13;9.88;;;;;;;5.22;100.00;101012.47;5115152;27;20423;-73
2022/09/30 05:11:16;;;;;;;20.73;11.60;;;;;;;5.17;100.00;101011.13;5114830;28;20035;-73
2022/09/30 05:13:42;;;;;;;17.90;11.00;;;;;;;5.16;100.00;101017.31;5115923;28;20024;-73
2022/09/30 05:16:09;;;;;;;22.10;12.23;;;;;;;5.14;100.00;101014.78;5114917;28;20035;-73
2022/09/30 05:18:35;;;;;;;18.10;10.77;;;;;;;5.14;100.00;101017.44;5115343;28;20039;-73
2022/09/30 05:21:02;;;;;;;19.50;11.38;;;;;;;5.14;100.00;101017.44;5114893;28;20482;-73
2022/09/30 05:23:29;;;;;;;20.05;12.35;;;;;;;5.12;100.00;101012.25;5114716;28;20032;-73
2022/09/30 05:25:55;;;;;;;23.55;11.88;;;;;;;5.12;100.00;101014.06;5114719;28;20024;-73
2022/09/30 05:28:21;;;;;;;20.63;11.85;;;;;;;5.12;100.00;101021.97;5114598;28;20032;-73
2022/09/30 05:30:48;;;;;;;19.08;11.55;;;;;;;5.15;100.00;101015.63;5114726;28;20472;-72
2022/09/30 05:33:14;;;;;;;28.67;14.77;;;;;;;5.18;100.00;101018.06;5114774;27;20035;-73
2022/09/30 05:35:41;;;;;;;17.08;10.30;;;;;;;5.22;100.00;101016.94;5114491;28;20035;-73
2022/09/30 05:38:07;;;;;;;17.92;11.40;;;;;;;5.24;100.00;101017.66;5114827;27;20028;-73
2022/09/30 05:40:35;;;;;;;20.08;11.57;;;;;;;5.26;100.00;101013.97;5114099;28;20035;-73
2022/09/30 05:43:01;;;;;;;19.85;13.13;;;;;;;5.38;100.00;101022.06;5114226;28;20080;-73
2022/09/30 05:45:26;;;;;;;25.52;14.13;;;;;;;5.55;100.00;101016.47;5114030;28;20031;-73
2022/09/30 05:47:55;;;;;;;34.13;16.55;;;;;;;5.75;100.00;101027.53;5113851;28;20035;-72
2022/09/30 05:50:23;;;;;;;32.75;16.85;;;;;;;5.97;100.00;101013.72;5114156;28;20084;-73
2022/09/30 05:52:48;;;;;;;32.75;15.77;;;;;;;6.16;100.00;101019.44;5113389;28;20042;-72
2022/09/30 05:55:15;;;;;;;33.72;17.75;;;;;;;6.32;100.00;101013.94;5113840;28;20039;-73
2022/09/30 05:57:41;;;;;;;29.02;16.55;;;;;;;6.45;100.00;101011.28;5114145;28;20034;-73
2022/09/30 06:00:07;;;;;;;36.35;18.60;;;;;;;6.55;100.00;101008.81;5112989;28;20420;-72
2022/09/30 06:02:37;;;;;;;32.95;18.30;;;;;;;6.62;100.00;101015.38;5113576;28;20473;-72
2022/09/30 06:05:05;;;;;;;31.40;15.93;;;;;;;6.66;100.00;101021.31;5113681;28;20036;-72
2022/09/30 06:07:33;;;;;;;28.92;14.10;;;;;;;6.69;100.00;101011.34;5114289;28;20023;-73
2022/09/30 06:09:59;;;;;;;27.83;14.60;;;;;;;6.74;100.00;101018.94;5113971;28;20486;-72
2022/09/30 06:12:27;;;;;;;29.95;16.52;;;;;;;6.76;100.00;101016.19;5113771;28;20040;-72
2022/09/30 06:14:53;;;;;;;27.45;15.02;;;;;;;6.81;100.00;101030.78;5113635;28;20054;-72
2022/09/30 06:17:19;;;;;;;28.75;16.08;;;;;;;6.89;100.00;101028.41;5113522;28;20027;-73
2022/09/30 06:19:44;;;;;;;31.27;17.55;;;;;;;6.99;100.00;101031.25;5112327;28;20038;-73
2022/09/30 06:22:10;;;;;;;28.02;16.60;;;;;;;7.10;100.00;101035.75;5113270;28;20549;-72
2022/09/30 06:24:36;;;;;;;29.73;17.80;;;;;;;7.21;100.00;101029.66;5113273;28;20031;-72
2022/09/30 06:27:01;;;;;;;34.40;17.83;;;;;;;7.36;100.00;101028.56;5112224;28;20043;-72
2022/09/30 06:29:26;;;;;;;34.95;18.40;;;;;;;7.51;100.00;101036.28;5114170;28;20059;-72
2022/09/30 06:31:51;;;;;;;34.08;18.30;;;;;;;7.66;100.00;101045.78;5113934;28;20104;-72
2022/09/30 06:34:17;;;;;;;33.63;18.02;;;;;;;7.81;100.00;101049.06;5113785;28;20093;-73
2022/09/30 06:36:42;;;;;;;34.95;18.88;;;;;;;7.95;100.00;101054.13;5113103;28;20067;-73
2022/09/30 06:39:07;;;;;;;34.88;19.20;;;;;;;8.06;100.00;101057.78;5113277;28;20051;-73
2022/09/30 06:41:36;;;;;;;31.58;18.70;;;;;;;8.14;100.00;101055.41;5113116;28;20031;-72
2022/09/30 06:44:02;;;;;;;32.72;18.48;;;;;;;8.23;100.00;101054.69;5113348;28;20070;-73
2022/09/30 06:46:28;;;;;;;26.63;17.75;;;;;;;8.28;100.00;101056.97;5113941;28;20436;-72
2022/09/30 06:48:56;;;;;;;30.92;17.58;;;;;;;8.31;100.00;101059.38;5112172;28;20022;-71
2022/09/30 06:51:25;;;;;;;32.53;17.15;;;;;;;8.33;100.00;101053.97;5113339;28;20035;-71
2022/09/30 06:53:51;;;;;;;26.60;16.70;;;;;;;8.33;100.00;101056.63;5113310;28;20036;-72
2022/09/30 06:56:18;;;;;;;25.35;15.75;;;;;;;8.33;100.00;101046.88;5113188;28;20027;-73
2022/09/30 06:58:44;;;;;;;24.55;15.23;;;;;;;8.33;100.00;101049.53;5113629;28;20031;-72
2022/09/30 07:01:14;;;;;;;24.42;15.77;;;;;;;8.30;100.00;101047.94;5112606;28;20019;-72
2022/09/30 07:03:43;;;;;;;21.38;14.68;;;;;;;8.29;100.00;101053.38;5113470;28;20031;-73
2022/09/30 07:06:09;;;;;;;21.65;14.75;;;;;;;8.29;100.00;101054.22;5116607;27;20031;-72
2022/09/30 07:08:37;;;;;;;24.80;13.57;;;;;;;8.29;100.00;101043.59;5116715;28;20024;-72
2022/09/30 07:11:16;;;;;;;25.98;14.20;;;;;;;8.30;100.00;101044.47;5116791;28;20035;-72
2022/09/30 07:13:45;;;;;;;19.30;12.50;;;;;;;8.35;100.00;101047.59;5116746;28;20034;-72
2022/09/30 07:16:14;;;;;;;24.75;13.13;;;;;;;8.36;100.00;101048.44;5116598;28;20066;-73
2022/09/30 07:18:46;;;;;;;22.30;12.68;;;;;;;8.38;100.00;101047.34;5116623;28;20051;-72
2022/09/30 07:21:14;;;;;;;22.20;11.65;;;;;;;8.40;100.00;101045.41;5116595;28;20047;-74
2022/09/30 07:23:46;;;;;;;17.63;11.00;;;;;;;8.46;100.00;101045.00;5116499;28;20024;-73
2022/09/30 07:26:22;;;;;;;20.85;10.57;;;;;;;8.55;100.00;101039.91;5116639;28;20035;-72
2022/09/30 07:28:49;;;;;;;19.40;11.82;;;;;;;8.61;100.00;101040.28;5116665;28;20036;-73
2022/09/30 07:31:25;;;;;;;23.90;11.43;;;;;;;8.72;100.00;101044.72;5116342;28;20145;-73
2022/09/30 07:33:51;;;;;;;20.15;11.43;;;;;;;8.88;100.00;101038.19;5116121;28;20092;-74
2022/09/30 07:36:18;;;;;;;22.50;10.38;;;;;;;9.03;100.00;101028.16;5114919;28;20533;-73
2022/09/30 07:38:44;;;;;;;24.88;10.10;;;;;;;9.26;100.00;101034.25;5116142;28;20464;-73
2022/09/30 07:41:15;;;;;;;13.90;9.32;;;;;;;9.50;100.00;101034.88;5116162;28;20031;-73
2022/09/30 07:43:45;;;;;;;15.02;8.75;;;;;;;9.77;100.00;101030.88;5114966;28;20034;-73
2022/09/30 07:46:13;;;;;;;12.27;7.78;;;;;;;10.04;100.00;101034.84;5115769;28;20035;-73
2022/09/30 07:48:45;;;;;;;9.45;6.85;;;;;;;10.34;100.00;101033.19;5116304;28;20153;-73
2022/09/30 07:51:12;;;;;;;10.98;6.53;;;;;;;10.63;100.00;101029.81;5116175;28;20532;-72
2022/09/30 07:53:39;;;;;;;8.40;5.80;;;;;;;10.91;100.00;101033.53;5115926;28;20131;-72
2022/09/30 07:56:05;;;;;;;6.00;4.93;;;;;;;11.14;100.00;101030.63;5115939;28;20039;-74
2022/09/30 07:58:31;;;;;;;6.72;4.70;;;;;;;11.33;100.00;101028.00;5116018;28;20099;-72
2022/09/30 08:00:57;;;;;;;7.75;4.78;;;;;;;11.46;100.00;101025.06;5115958;28;20023;-75
2022/09/30 08:03:22;;;;;;;7.45;4.88;;;;;;;11.77;100.00;101022.25;5116522;28;20429;-73
2022/09/30 08:05:48;;;;;;;10.60;4.55;;;;;;;12.06;100.00;101029.38;5116052;28;20034;-75
2022/09/30 08:08:15;;;;;;;8.55;4.22;;;;;;;12.39;100.00;101027.16;5115993;28;20023;-73
2022/09/30 08:10:40;;;;;;;5.97;4.43;;;;;;;12.69;100.00;101020.72;5115941;28;20421;-73
2022/09/30 08:13:07;;;;;;;8.20;3.80;;;;;;;12.93;100.00;101013.97;5115831;28;20081;-72
2022/09/30 08:15:32;;;;;;;4.68;3.60;;;;;;;13.18;100.00;101023.94;5115070;28;20063;-75
2022/09/30 08:17:58;;;;;;;5.65;3.20;;;;;;;13.42;100.00;101025.19;5116058;28;20431;-75
2022/09/30 08:20:23;;;;;;;4.53;3.20;;;;;;;13.65;100.00;101022.03;5115417;28;20031;-74
2022/09/30 08:22:54;;;;;;;5.63;3.10;;;;;;;14.06;100.00;101020.50;5115541;28;20377;-78
2022/09/30 08:25:21;;;;;;;4.88;3.15;;;;;;;14.53;100.00;101013.88;5115423;28;20043;-74
2022/09/30 08:27:47;;;;;;;5.55;3.53;;;;;;;14.80;100.00;101020.03;5116285;28;20035;-74
2022/09/30 08:30:12;;;;;;;4.68;2.92;;;;;;;15.14;100.00;101011.94;5114087;28;20032;-75
2022/09/30 08:32:38;;;;;;;5.32;3.00;;;;;;;15.30;100.00;101019.16;5115688;28;20038;-75
2022/09/30 08:35:04;;;;;;;5.30;2.60;;;;;;;15.14;100.00;101011.94;5115401;28;20071;-75
2022/09/30 08:37:29;;;;;;;7.65;2.95;;;;;;;15.16;100.00;101012.59;5115511;28;20043;-73
2022/09/30 08:39:55;;;;;;;5.63;2.90;;;;;;;15.22;100.00;101018.31;5115904;28;20024;-76
2022/09/30 08:42:41;;;;;;;3.97;2.70;;;;;;;15.61;99.96;101023.03;5115356;28;20039;-76
2022/09/30 08:45:15;;;;;;;5.05;2.33;;;;;;;16.46;94.36;101027.94;5115479;28;20063;-74
2022/09/30 08:47:59;;;;;;;3.88;2.45;;;;;;;17.73;86.91;101018.78;5115320;28;20024;-72
2022/09/30 08:50:49;;;;;;;3.70;2.20;;;;;;;19.24;74.51;101014.00;5115181;28;20085;-74
2022/09/30 08:53:25;;;;;;;6.22;2.20;;;;;;;20.65;64.04;101018.59;5115695;28;20028;-73
2022/09/30 08:55:53;;;;;;;3.28;2.20;;;;;;;21.89;55.86;101010.31;5115213;28;20372;-74
2022/09/30 08:58:23;;;;;;;4.07;2.00;;;;;;;22.65;52.33;101011.63;5115085;28;20115;-74
2022/09/30 09:00:53;;;;;;;6.43;1.67;;;;;;;22.97;50.80;101007.06;5115546;28;20070;-74
2022/09/30 09:03:21;;;;;;;1.70;1.27;;;;;;;22.78;50.54;101016.13;5115166;28;20110;-73
2022/09/30 09:06:29;;;;;;;2.75;1.55;;;;;;;22.04;50.22;101008.22;5114904;28;20032;-73
2022/09/30 09:09:16;;;;;;;2.95;1.60;;;;;;;22.32;51.42;101018.00;5064969;28;20467;-74
2022/09/30 09:12:00;;;;;;;2.42;1.20;;;;;;;22.71;48.80;101022.41;5114928;28;20021;-73
2022/09/30 09:14:49;;;;;;;2.45;1.30;;;;;;;23.17;48.21;101023.28;5115079;28;20482;-74
2022/09/30 09:17:31;;;;;;;2.53;1.10;;;;;;;24.35;45.96;101012.66;5115024;28;20478;-74
2022/09/30 09:20:10;;;;;;;3.90;1.02;;;;;;;25.25;44.45;101010.25;5114412;28;20042;-75
2022/09/30 09:22:37;;;;;;;1.33;0.95;;;;;;;25.36;42.30;101019.53;5115661;28;20043;-74
2022/09/30 09:25:03;;;;;;;1.95;1.05;;;;;;;25.25;41.52;101016.53;5114608;28;20036;-74
2022/09/30 09:27:45;;;;;;;1.95;1.13;;;;;;;24.94;41.97;101023.84;5113377;28;20590;-73
2022/09/30 09:30:14;;;;;;;1.38;0.80;;;;;;;24.62;43.74;101015.91;5115124;28;20028;-73
2022/09/30 09:32:41;;;;;;;0.80;0.80;;;;;;;24.58;42.75;101024.72;5114974;28;20116;-73
2022/09/30 09:35:40;;;;;;;1.80;1.10;;;;;;;25.36;40.79;101033.16;5114456;28;20157;-74
2022/09/30 09:38:24;;;;;;;3.58;0.88;;;;;;;25.05;41.37;101040.47;5114851;28;20028;-74
2022/09/30 09:40:59;;;;;;;1.67;0.93;;;;;;;24.54;42.63;101023.53;5113088;28;20035;-72
2022/09/30 09:44:19;;;;;;;1.73;0.93;;;;;;;24.29;41.98;101036.13;5114244;28;20140;-71
2022/09/30 09:46:54;;;;;;;2.05;1.52;;;;;;;25.15;41.74;101041.59;5066024;28;20052;-72
2022/09/30 09:49:19;;;;;;;3.05;1.50;;;;;;;24.56;41.56;101029.59;5114138;28;20133;-72
2022/09/30 09:52:11;;;;;;;5.38;1.30;;;;;;;25.38;39.38;101034.59;5114131;28;20038;-73
2022/09/30 09:54:40;;;;;;;2.03;1.00;;;;;;;25.07;39.04;101027.47;5086719;28;20039;-72
2022/09/30 09:57:08;;;;;;;3.08;1.00;;;;;;;25.15;37.61;101025.28;5114106;28;20032;-75
2022/09/30 09:59:34;;;;;;;0.77;0.77;;;;;;;24.27;41.22;101018.38;5113972;28;20027;-71
2022/09/30 10:01:59;;;;;;;1.40;0.77;;;;;;;23.94;40.73;101020.41;5114550;28;20023;-73
2022/09/30 10:04:28;;;;;;;1.98;1.00;;;;;;;23.29;42.95;101025.25;5113819;28;20050;-78
2022/09/30 10:06:58;;;;;;;1.20;0.93;;;;;;;21.83;45.40;101025.53;5114000;28;20329;-80
2022/09/30 10:09:28;;;;;;;5.10;1.08;;;;;;;21.51;46.89;101024.47;5113624;28;20020;-74
2022/09/30 10:12:06;;;;;;;1.20;0.70;;;;;;;21.34;46.95;101015.91;5113918;28;20028;-74
2022/09/30 10:14:45;;;;;;;2.60;1.40;;;;;;;20.71;51.03;101020.50;5112504;28;20353;-74
2022/09/30 10:17:28;;;;;;;3.28;1.00;;;;;;;20.88;51.72;101017.44;5113136;28;20375;-74
2022/09/30 10:20:06;;;;;;;2.08;1.00;;;;;;;21.07;49.84;101026.66;5114038;28;20027;-75
2022/09/30 10:22:33;;;;;;;2.83;1.02;;;;;;;20.45;53.15;101021.19;5113388;28;20043;-73
2022/09/30 10:25:29;;;;;;;2.40;1.02;;;;;;;19.67;57.19;101023.97;5113617;28;20108;-74
2022/09/30 10:28:03;;;;;;;4.22;0.90;;;;;;;19.01;58.88;101019.59;5100271;28;20040;-75
2022/09/30 10:30:40;;;;;;;3.70;1.00;;;;;;;18.87;64.09;101009.66;5113647;28;20055;-75
2022/09/30 10:33:40;;;;;;;1.98;1.17;;;;;;;18.84;60.98;101016.25;5114383;28;20081;-76
2022/09/30 10:36:17;;;;;;;3.90;1.50;;;;;;;18.36;63.05;101011.28;5114211;28;20032;-77
2022/09/30 10:39:04;;;;;;;1.73;1.13;;;;;;;18.22;67.79;101014.81;5113037;28;20024;-75
2022/09/30 10:41:32;;;;;;;2.60;1.02;;;;;;;17.84;65.80;101010.28;5113439;28;20023;-76
2022/09/30 10:44:01;;;;;;;2.75;1.58;;;;;;;17.71;66.18;101012.78;5113616;28;20030;-73
2022/09/30 10:46:34;;;;;;;4.10;1.33;;;;;;;17.24;65.62;101020.00;5113228;28;20436;-76
2022/09/30 10:49:10;;;;;;;2.05;1.20;;;;;;;16.76;67.51;101009.34;5113081;28;20059;-73
2022/09/30 10:51:36;;;;;;;2.95;1.20;;;;;;;16.30;70.61;101011.88;5113740;28;20066;-73
2022/09/30 10:54:04;;;;;;;2.42;0.98;;;;;;;16.17;68.74;101015.13;5112161;28;20063;-73
2022/09/30 10:56:38;;;;;;;1.27;1.17;;;;;;;16.12;72.92;101009.41;5113682;28;20040;-73
2022/09/30 10:59:15;;;;;;;4.05;1.50;;;;;;;16.20;77.69;101007.56;5113340;28;20028;-74
2022/09/30 11:01:48;;;;;;;4.55;1.30;;;;;;;16.39;74.41;100998.28;5113319;28;20024;-73
2022/09/30 11:04:20;;;;;;;2.40;1.40;;;;;;;16.75;71.00;101000.47;5113300;28;20024;-72
2022/09/30 11:06:50;;;;;;;3.78;1.80;;;;;;;17.01;70.62;100990.44;5112777;28;20193;-73
2022/09/30 11:09:51;;;;;;;3.13;1.92;;;;;;;17.21;74.08;101001.56;5113861;28;20035;-73
2022/09/30 11:12:27;;;;;;;2.78;2.13;;;;;;;17.19;71.90;100993.66;5060635;28;20042;-72
2022/09/30 11:15:05;;;;;;;4.85;2.30;;;;;;;17.10;72.58;101000.13;5113299;28;20024;-78
2022/09/30 11:18:04;;;;;;;5.07;2.13;;;;;;;16.94;73.51;101001.03;5112435;28;20024;-75
2022/09/30 11:20:44;;;;;;;4.13;1.90;;;;;;;16.68;74.41;100998.66;5113436;28;20027;-79
2022/09/30 11:23:42;;;;;;;2.40;1.90;;;;;;;16.77;73.86;100988.72;5113246;28;20130;-76
2022/09/30 11:26:16;;;;;;;3.40;1.80;;;;;;;16.92;73.20;100986.97;5112808;28;20076;-77
2022/09/30 11:29:03;;;;;;;3.38;2.08;;;;;;;16.89;70.42;100987.31;5112791;28;20446;-78
2022/09/30 11:31:37;;;;;;;3.33;1.85;;;;;;;17.20;73.01;100986.47;5112938;28;20035;-78
2022/09/30 11:34:10;;;;;;;2.95;1.73;;;;;;;17.25;67.15;100973.28;5111868;28;20027;-75
2022/09/30 11:36:58;;;;;;;2.30;1.60;;;;;;;17.28;70.65;100975.63;5112992;28;20040;-75
2022/09/30 11:40:01;;;;;;;1.90;1.70;;;;;;;17.46;68.08;100967.25;5081954;28;20123;-74
2022/09/30 11:42:38;;;;;;;3.55;1.70;;;;;;;17.70;71.05;100968.03;5112719;28;20467;-74
2022/09/30 11:45:24;;;;;;;6.57;2.00;;;;;;;17.84;70.90;100963.69;5112550;28;20207;-73